< < Back
Terminal Aerodrome Forecast


Current Version              Previous Versions:   1  2  3  4  5  6  7  8  9  

Terminal Aerodrome Forecast

154
FTUS44 KBMX 230520
TAFTCL
TAF
KTCL 230520Z 2306/2406 VRB03KT P6SM SCT250
     FM230800 00000KT 4SM BR SCT250
      TEMPO 2309/2313 2SM BR
     FM231500 22003KT P6SM BKN250
     FM231800 21006KT P6SM VCTS BKN050CB=



Latest METAR

781
SAUS70 KWBC 231700 RRB
MTRTCL
METAR KTCL 231653Z 22004KT 10SM CLR 31/24 A3001 RMK AO2 SLP160
T03110244


USA.gov is the U.S. government's official web portal to all federal, state and local government web resources and services.